sensor_id;sensor_type;location;lat;lon;timestamp;P1;durP1;ratioP1;P2;durP2;ratioP2
77864;SDS011;67061;48.524;9.040;2023-02-15T00:00:33;20.98;;;8.77;;
77864;SDS011;67061;48.524;9.040;2023-02-15T00:03:20;16.92;;;10.15;;
77864;SDS011;67061;48.524;9.040;2023-02-15T00:06:07;21.83;;;10.15;;
77864;SDS011;67061;48.524;9.040;2023-02-15T00:08:55;19.92;;;10.43;;
77864;SDS011;67061;48.524;9.040;2023-02-15T00:11:42;17.50;;;9.23;;
77864;SDS011;67061;48.524;9.040;2023-02-15T00:14:36;22.48;;;12.43;;
77864;SDS011;67061;48.524;9.040;2023-02-15T00:17:23;21.55;;;12.00;;
77864;SDS011;67061;48.524;9.040;2023-02-15T00:20:13;21.35;;;12.07;;
77864;SDS011;67061;48.524;9.040;2023-02-15T00:23:00;20.05;;;11.77;;
77864;SDS011;67061;48.524;9.040;2023-02-15T00:25:47;21.05;;;12.50;;
77864;SDS011;67061;48.524;9.040;2023-02-15T00:28:35;19.42;;;11.23;;
77864;SDS011;67061;48.524;9.040;2023-02-15T00:31:24;20.35;;;12.43;;
77864;SDS011;67061;48.524;9.040;2023-02-15T00:34:12;16.52;;;9.50;;
77864;SDS011;67061;48.524;9.040;2023-02-15T00:37:01;20.92;;;11.60;;
77864;SDS011;67061;48.524;9.040;2023-02-15T00:39:49;19.50;;;10.10;;
77864;SDS011;67061;48.524;9.040;2023-02-15T00:42:36;21.23;;;12.18;;
77864;SDS011;67061;48.524;9.040;2023-02-15T00:45:23;22.98;;;9.48;;
77864;SDS011;67061;48.524;9.040;2023-02-15T00:48:12;21.35;;;12.18;;
77864;SDS011;67061;48.524;9.040;2023-02-15T00:50:59;20.90;;;10.82;;
77864;SDS011;67061;48.524;9.040;2023-02-15T00:53:47;26.00;;;12.63;;
77864;SDS011;67061;48.524;9.040;2023-02-15T00:56:35;21.60;;;13.25;;
77864;SDS011;67061;48.524;9.040;2023-02-15T00:59:22;21.35;;;12.38;;
77864;SDS011;67061;48.524;9.040;2023-02-15T01:02:09;21.95;;;12.55;;
77864;SDS011;67061;48.524;9.040;2023-02-15T01:04:58;21.13;;;9.90;;
77864;SDS011;67061;48.524;9.040;2023-02-15T01:07:45;24.42;;;13.00;;
77864;SDS011;67061;48.524;9.040;2023-02-15T01:10:33;22.13;;;12.13;;
77864;SDS011;67061;48.524;9.040;2023-02-15T01:13:21;21.23;;;13.02;;
77864;SDS011;67061;48.524;9.040;2023-02-15T01:16:09;20.13;;;12.27;;
77864;SDS011;67061;48.524;9.040;2023-02-15T01:18:56;22.13;;;12.15;;
77864;SDS011;67061;48.524;9.040;2023-02-15T01:21:45;20.95;;;10.52;;
77864;SDS011;67061;48.524;9.040;2023-02-15T01:24:32;27.67;;;14.68;;
77864;SDS011;67061;48.524;9.040;2023-02-15T01:27:20;22.20;;;10.05;;
77864;SDS011;67061;48.524;9.040;2023-02-15T01:30:07;22.85;;;12.50;;
77864;SDS011;67061;48.524;9.040;2023-02-15T01:32:55;22.60;;;12.45;;
77864;SDS011;67061;48.524;9.040;2023-02-15T01:35:43;22.92;;;13.35;;
77864;SDS011;67061;48.524;9.040;2023-02-15T01:38:32;23.42;;;13.65;;
77864;SDS011;67061;48.524;9.040;2023-02-15T01:41:20;26.17;;;13.07;;
77864;SDS011;67061;48.524;9.040;2023-02-15T01:47:33;25.80;;;12.95;;
77864;SDS011;67061;48.524;9.040;2023-02-15T01:50:24;21.95;;;13.15;;
77864;SDS011;67061;48.524;9.040;2023-02-15T01:53:16;25.80;;;13.15;;
77864;SDS011;67061;48.524;9.040;2023-02-15T01:56:09;25.45;;;13.07;;
77864;SDS011;67061;48.524;9.040;2023-02-15T01:59:01;27.85;;;12.73;;
77864;SDS011;67061;48.524;9.040;2023-02-15T02:01:53;28.73;;;13.52;;
77864;SDS011;67061;48.524;9.040;2023-02-15T02:04:48;24.48;;;13.35;;
77864;SDS011;67061;48.524;9.040;2023-02-15T02:07:39;23.83;;;12.13;;
77864;SDS011;67061;48.524;9.040;2023-02-15T02:10:28;23.55;;;12.57;;
77864;SDS011;67061;48.524;9.040;2023-02-15T02:13:17;25.77;;;14.32;;
77864;SDS011;67061;48.524;9.040;2023-02-15T02:16:07;22.08;;;11.48;;
77864;SDS011;67061;48.524;9.040;2023-02-15T02:19:04;23.67;;;13.35;;
77864;SDS011;67061;48.524;9.040;2023-02-15T02:28:49;22.70;;;11.43;;
77864;SDS011;67061;48.524;9.040;2023-02-15T02:35:19;21.17;;;11.90;;
77864;SDS011;67061;48.524;9.040;2023-02-15T02:38:12;21.15;;;9.88;;
77864;SDS011;67061;48.524;9.040;2023-02-15T02:41:07;22.80;;;12.88;;
77864;SDS011;67061;48.524;9.040;2023-02-15T02:44:04;22.17;;;12.60;;
77864;SDS011;67061;48.524;9.040;2023-02-15T02:46:57;21.73;;;12.73;;
77864;SDS011;67061;48.524;9.040;2023-02-15T02:49:51;22.38;;;12.85;;
77864;SDS011;67061;48.524;9.040;2023-02-15T02:52:46;22.73;;;12.73;;
77864;SDS011;67061;48.524;9.040;2023-02-15T02:55:35;22.00;;;12.85;;
77864;SDS011;67061;48.524;9.040;2023-02-15T02:58:26;20.13;;;12.43;;
77864;SDS011;67061;48.524;9.040;2023-02-15T03:01:19;23.70;;;12.70;;
77864;SDS011;67061;48.524;9.040;2023-02-15T03:04:10;21.25;;;10.63;;
77864;SDS011;67061;48.524;9.040;2023-02-15T03:07:02;21.75;;;14.05;;
77864;SDS011;67061;48.524;9.040;2023-02-15T03:09:54;24.27;;;12.85;;
77864;SDS011;67061;48.524;9.040;2023-02-15T03:12:44;20.90;;;11.38;;
77864;SDS011;67061;48.524;9.040;2023-02-15T03:15:34;27.27;;;13.27;;
77864;SDS011;67061;48.524;9.040;2023-02-15T03:18:43;20.83;;;11.80;;
77864;SDS011;67061;48.524;9.040;2023-02-15T03:21:40;21.10;;;12.30;;
77864;SDS011;67061;48.524;9.040;2023-02-15T03:24:35;22.40;;;12.68;;
77864;SDS011;67061;48.524;9.040;2023-02-15T03:27:27;20.33;;;10.60;;
77864;SDS011;67061;48.524;9.040;2023-02-15T03:30:20;19.73;;;11.93;;
77864;SDS011;67061;48.524;9.040;2023-02-15T03:33:08;22.02;;;13.13;;
77864;SDS011;67061;48.524;9.040;2023-02-15T03:35:59;24.13;;;13.10;;
77864;SDS011;67061;48.524;9.040;2023-02-15T03:38:53;24.45;;;13.23;;
77864;SDS011;67061;48.524;9.040;2023-02-15T03:41:48;25.27;;;13.32;;
77864;SDS011;67061;48.524;9.040;2023-02-15T03:44:46;23.20;;;13.07;;
77864;SDS011;67061;48.524;9.040;2023-02-15T03:47:38;28.17;;;13.43;;
77864;SDS011;67061;48.524;9.040;2023-02-15T03:50:29;21.48;;;12.35;;
77864;SDS011;67061;48.524;9.040;2023-02-15T03:53:35;22.85;;;11.40;;
77864;SDS011;67061;48.524;9.040;2023-02-15T03:56:23;20.52;;;11.77;;
77864;SDS011;67061;48.524;9.040;2023-02-15T03:59:11;22.70;;;13.18;;
77864;SDS011;67061;48.524;9.040;2023-02-15T04:02:18;28.48;;;13.60;;
77864;SDS011;67061;48.524;9.040;2023-02-15T04:05:10;26.33;;;13.77;;
77864;SDS011;67061;48.524;9.040;2023-02-15T04:07:57;26.65;;;13.65;;
77864;SDS011;67061;48.524;9.040;2023-02-15T04:10:44;26.50;;;14.05;;
77864;SDS011;67061;48.524;9.040;2023-02-15T04:13:40;21.13;;;12.85;;
77864;SDS011;67061;48.524;9.040;2023-02-15T04:16:28;21.73;;;11.55;;
77864;SDS011;67061;48.524;9.040;2023-02-15T04:19:15;24.83;;;13.45;;
77864;SDS011;67061;48.524;9.040;2023-02-15T04:22:20;27.13;;;13.70;;
77864;SDS011;67061;48.524;9.040;2023-02-15T04:25:25;22.60;;;11.93;;
77864;SDS011;67061;48.524;9.040;2023-02-15T04:28:12;27.42;;;12.88;;
77864;SDS011;67061;48.524;9.040;2023-02-15T04:30:59;24.48;;;13.75;;
77864;SDS011;67061;48.524;9.040;2023-02-15T04:33:46;26.55;;;14.48;;
77864;SDS011;67061;48.524;9.040;2023-02-15T04:36:35;22.20;;;11.43;;
77864;SDS011;67061;48.524;9.040;2023-02-15T04:39:22;24.15;;;13.00;;
77864;SDS011;67061;48.524;9.040;2023-02-15T04:42:09;22.25;;;11.43;;
77864;SDS011;67061;48.524;9.040;2023-02-15T04:44:56;26.15;;;14.02;;
77864;SDS011;67061;48.524;9.040;2023-02-15T04:47:44;23.30;;;14.05;;
77864;SDS011;67061;48.524;9.040;2023-02-15T04:50:31;25.13;;;14.80;;
77864;SDS011;67061;48.524;9.040;2023-02-15T04:53:19;30.95;;;14.55;;
77864;SDS011;67061;48.524;9.040;2023-02-15T04:56:07;21.30;;;10.93;;
77864;SDS011;67061;48.524;9.040;2023-02-15T04:58:54;22.33;;;12.85;;
77864;SDS011;67061;48.524;9.040;2023-02-15T05:01:41;22.25;;;12.90;;
77864;SDS011;67061;48.524;9.040;2023-02-15T05:04:28;24.83;;;13.52;;
77864;SDS011;67061;48.524;9.040;2023-02-15T05:07:16;26.25;;;13.90;;
77864;SDS011;67061;48.524;9.040;2023-02-15T05:10:07;18.83;;;9.85;;
77864;SDS011;67061;48.524;9.040;2023-02-15T05:12:55;25.52;;;13.05;;
77864;SDS011;67061;48.524;9.040;2023-02-15T05:15:46;25.98;;;14.75;;
77864;SDS011;67061;48.524;9.040;2023-02-15T05:18:34;26.50;;;13.25;;
77864;SDS011;67061;48.524;9.040;2023-02-15T05:21:22;24.35;;;13.93;;
77864;SDS011;67061;48.524;9.040;2023-02-15T05:24:09;26.88;;;13.27;;
77864;SDS011;67061;48.524;9.040;2023-02-15T05:27:11;26.70;;;14.30;;
77864;SDS011;67061;48.524;9.040;2023-02-15T05:30:16;26.05;;;14.05;;
77864;SDS011;67061;48.524;9.040;2023-02-15T05:33:03;25.60;;;14.27;;
77864;SDS011;67061;48.524;9.040;2023-02-15T05:35:50;23.55;;;13.00;;
77864;SDS011;67061;48.524;9.040;2023-02-15T05:38:37;25.65;;;12.95;;
77864;SDS011;67061;48.524;9.040;2023-02-15T05:41:25;24.30;;;12.73;;
77864;SDS011;67061;48.524;9.040;2023-02-15T05:44:13;23.20;;;13.43;;
77864;SDS011;67061;48.524;9.040;2023-02-15T05:47:00;33.85;;;14.48;;
77864;SDS011;67061;48.524;9.040;2023-02-15T05:49:48;24.58;;;13.60;;
77864;SDS011;67061;48.524;9.040;2023-02-15T05:52:35;25.35;;;13.88;;
77864;SDS011;67061;48.524;9.040;2023-02-15T05:55:22;24.98;;;13.95;;
77864;SDS011;67061;48.524;9.040;2023-02-15T05:58:09;24.35;;;14.68;;
77864;SDS011;67061;48.524;9.040;2023-02-15T06:00:58;26.50;;;14.60;;
77864;SDS011;67061;48.524;9.040;2023-02-15T06:03:45;24.48;;;11.88;;
77864;SDS011;67061;48.524;9.040;2023-02-15T06:06:33;26.25;;;13.68;;
77864;SDS011;67061;48.524;9.040;2023-02-15T06:09:21;29.17;;;14.65;;
77864;SDS011;67061;48.524;9.040;2023-02-15T06:12:08;29.83;;;14.95;;
77864;SDS011;67061;48.524;9.040;2023-02-15T06:14:55;27.20;;;14.68;;
77864;SDS011;67061;48.524;9.040;2023-02-15T06:17:44;26.50;;;13.43;;
77864;SDS011;67061;48.524;9.040;2023-02-15T06:20:31;26.50;;;13.93;;
77864;SDS011;67061;48.524;9.040;2023-02-15T06:23:18;23.60;;;13.15;;
77864;SDS011;67061;48.524;9.040;2023-02-15T06:26:06;25.08;;;12.68;;
77864;SDS011;67061;48.524;9.040;2023-02-15T06:28:53;24.30;;;13.40;;
77864;SDS011;67061;48.524;9.040;2023-02-15T06:31:40;21.98;;;12.50;;
77864;SDS011;67061;48.524;9.040;2023-02-15T06:34:29;25.25;;;12.77;;
77864;SDS011;67061;48.524;9.040;2023-02-15T06:37:16;20.92;;;10.13;;
77864;SDS011;67061;48.524;9.040;2023-02-15T06:40:04;24.48;;;14.32;;
77864;SDS011;67061;48.524;9.040;2023-02-15T06:45:40;19.77;;;10.20;;
77864;SDS011;67061;48.524;9.040;2023-02-15T06:48:28;22.40;;;12.80;;
77864;SDS011;67061;48.524;9.040;2023-02-15T06:51:16;21.95;;;11.18;;
77864;SDS011;67061;48.524;9.040;2023-02-15T06:54:03;24.80;;;13.50;;
77864;SDS011;67061;48.524;9.040;2023-02-15T06:56:51;26.75;;;13.82;;
77864;SDS011;67061;48.524;9.040;2023-02-15T06:59:38;23.23;;;13.27;;
77864;SDS011;67061;48.524;9.040;2023-02-15T07:02:25;24.15;;;14.55;;
77864;SDS011;67061;48.524;9.040;2023-02-15T07:05:13;23.95;;;13.32;;
77864;SDS011;67061;48.524;9.040;2023-02-15T07:08:01;22.73;;;10.10;;
77864;SDS011;67061;48.524;9.040;2023-02-15T07:10:49;25.33;;;14.48;;
77864;SDS011;67061;48.524;9.040;2023-02-15T07:13:36;24.25;;;13.52;;
77864;SDS011;67061;48.524;9.040;2023-02-15T07:16:23;25.90;;;13.73;;
77864;SDS011;67061;48.524;9.040;2023-02-15T07:19:10;26.27;;;14.27;;
77864;SDS011;67061;48.524;9.040;2023-02-15T07:21:57;25.70;;;13.40;;
77864;SDS011;67061;48.524;9.040;2023-02-15T07:24:46;23.48;;;12.77;;
77864;SDS011;67061;48.524;9.040;2023-02-15T07:27:34;22.08;;;13.05;;
77864;SDS011;67061;48.524;9.040;2023-02-15T07:30:21;21.65;;;10.65;;
77864;SDS011;67061;48.524;9.040;2023-02-15T07:33:09;25.35;;;14.45;;
77864;SDS011;67061;48.524;9.040;2023-02-15T07:36:13;22.52;;;13.85;;
77864;SDS011;67061;48.524;9.040;2023-02-15T07:39:00;27.60;;;15.13;;
77864;SDS011;67061;48.524;9.040;2023-02-15T07:41:49;21.92;;;13.68;;
77864;SDS011;67061;48.524;9.040;2023-02-15T07:44:36;24.52;;;14.18;;
77864;SDS011;67061;48.524;9.040;2023-02-15T07:47:23;27.48;;;14.90;;
77864;SDS011;67061;48.524;9.040;2023-02-15T07:50:12;25.92;;;14.63;;
77864;SDS011;67061;48.524;9.040;2023-02-15T07:53:00;27.17;;;16.20;;
77864;SDS011;67061;48.524;9.040;2023-02-15T07:55:48;25.00;;;15.15;;
77864;SDS011;67061;48.524;9.040;2023-02-15T07:58:36;24.25;;;13.98;;
77864;SDS011;67061;48.524;9.040;2023-02-15T08:01:43;22.13;;;13.05;;
77864;SDS011;67061;48.524;9.040;2023-02-15T08:04:31;24.00;;;13.90;;
77864;SDS011;67061;48.524;9.040;2023-02-15T08:07:18;23.25;;;13.55;;
77864;SDS011;67061;48.524;9.040;2023-02-15T08:10:06;26.58;;;15.85;;
77864;SDS011;67061;48.524;9.040;2023-02-15T08:12:53;23.52;;;14.95;;
77864;SDS011;67061;48.524;9.040;2023-02-15T08:15:48;23.67;;;14.02;;
77864;SDS011;67061;48.524;9.040;2023-02-15T08:18:36;26.88;;;14.02;;
77864;SDS011;67061;48.524;9.040;2023-02-15T08:21:24;27.90;;;12.82;;
77864;SDS011;67061;48.524;9.040;2023-02-15T08:24:13;23.10;;;14.15;;
77864;SDS011;67061;48.524;9.040;2023-02-15T08:27:01;23.60;;;13.45;;
77864;SDS011;67061;48.524;9.040;2023-02-15T08:29:49;24.20;;;13.95;;
77864;SDS011;67061;48.524;9.040;2023-02-15T08:32:37;24.45;;;14.70;;
77864;SDS011;67061;48.524;9.040;2023-02-15T08:35:25;22.50;;;14.40;;
77864;SDS011;67061;48.524;9.040;2023-02-15T08:37:54;21.13;;;11.48;;
77864;SDS011;67061;48.524;9.040;2023-02-15T08:40:21;24.25;;;14.80;;
77864;SDS011;67061;48.524;9.040;2023-02-15T08:42:47;24.90;;;15.15;;
77864;SDS011;67061;48.524;9.040;2023-02-15T08:45:14;25.85;;;15.30;;
77864;SDS011;67061;48.524;9.040;2023-02-15T08:47:43;26.10;;;12.35;;
77864;SDS011;67061;48.524;9.040;2023-02-15T08:50:11;24.92;;;13.88;;
77864;SDS011;67061;48.524;9.040;2023-02-15T08:52:38;25.48;;;14.65;;
77864;SDS011;67061;48.524;9.040;2023-02-15T08:55:05;25.25;;;14.90;;
77864;SDS011;67061;48.524;9.040;2023-02-15T08:57:32;25.55;;;14.93;;
77864;SDS011;67061;48.524;9.040;2023-02-15T08:59:59;20.65;;;12.20;;
77864;SDS011;67061;48.524;9.040;2023-02-15T09:02:27;23.13;;;13.57;;
77864;SDS011;67061;48.524;9.040;2023-02-15T09:04:56;20.08;;;12.25;;
77864;SDS011;67061;48.524;9.040;2023-02-15T09:07:23;23.58;;;16.05;;
77864;SDS011;67061;48.524;9.040;2023-02-15T09:09:50;23.90;;;13.60;;
77864;SDS011;67061;48.524;9.040;2023-02-15T09:12:17;23.38;;;13.07;;
77864;SDS011;67061;48.524;9.040;2023-02-15T09:14:44;24.58;;;12.55;;
77864;SDS011;67061;48.524;9.040;2023-02-15T09:17:11;19.90;;;14.20;;
77864;SDS011;67061;48.524;9.040;2023-02-15T09:19:37;20.35;;;11.20;;
77864;SDS011;67061;48.524;9.040;2023-02-15T09:22:06;21.50;;;11.35;;
77864;SDS011;67061;48.524;9.040;2023-02-15T09:24:33;22.52;;;11.50;;
77864;SDS011;67061;48.524;9.040;2023-02-15T09:27:01;20.17;;;11.18;;
77864;SDS011;67061;48.524;9.040;2023-02-15T09:29:28;21.17;;;12.48;;
77864;SDS011;67061;48.524;9.040;2023-02-15T09:31:55;23.15;;;12.77;;
77864;SDS011;67061;48.524;9.040;2023-02-15T09:34:22;20.33;;;15.13;;
77864;SDS011;67061;48.524;9.040;2023-02-15T09:36:49;20.67;;;12.15;;
77864;SDS011;67061;48.524;9.040;2023-02-15T09:39:20;21.25;;;13.85;;
77864;SDS011;67061;48.524;9.040;2023-02-15T09:44:39;20.10;;;13.43;;
77864;SDS011;67061;48.524;9.040;2023-02-15T09:50:17;20.95;;;13.60;;
77864;SDS011;67061;48.524;9.040;2023-02-15T09:53:00;18.35;;;10.15;;
77864;SDS011;67061;48.524;9.040;2023-02-15T09:55:42;18.60;;;10.20;;
77864;SDS011;67061;48.524;9.040;2023-02-15T09:58:20;19.20;;;12.57;;
77864;SDS011;67061;48.524;9.040;2023-02-15T10:00:57;22.00;;;10.88;;
77864;SDS011;67061;48.524;9.040;2023-02-15T10:03:39;32.97;;;21.15;;
77864;SDS011;67061;48.524;9.040;2023-02-15T10:06:18;22.92;;;13.20;;
77864;SDS011;67061;48.524;9.040;2023-02-15T10:09:07;19.42;;;12.98;;
77864;SDS011;67061;48.524;9.040;2023-02-15T10:11:53;18.88;;;12.05;;
77864;SDS011;67061;48.524;9.040;2023-02-15T10:14:47;23.63;;;12.30;;
77864;SDS011;67061;48.524;9.040;2023-02-15T10:17:26;18.15;;;11.40;;
77864;SDS011;67061;48.524;9.040;2023-02-15T10:20:06;19.90;;;11.85;;
77864;SDS011;67061;48.524;9.040;2023-02-15T10:22:46;16.63;;;10.13;;
77864;SDS011;67061;48.524;9.040;2023-02-15T10:25:29;18.45;;;9.63;;
77864;SDS011;67061;48.524;9.040;2023-02-15T10:28:05;16.83;;;9.13;;
77864;SDS011;67061;48.524;9.040;2023-02-15T10:30:48;16.75;;;8.70;;
77864;SDS011;67061;48.524;9.040;2023-02-15T10:33:22;15.02;;;10.07;;
77864;SDS011;67061;48.524;9.040;2023-02-15T10:36:04;16.75;;;10.10;;
77864;SDS011;67061;48.524;9.040;2023-02-15T10:38:45;13.95;;;8.52;;
77864;SDS011;67061;48.524;9.040;2023-02-15T10:41:22;14.32;;;7.93;;
77864;SDS011;67061;48.524;9.040;2023-02-15T10:44:02;13.88;;;7.45;;
77864;SDS011;67061;48.524;9.040;2023-02-15T10:46:47;11.57;;;8.35;;
77864;SDS011;67061;48.524;9.040;2023-02-15T10:49:27;13.20;;;7.18;;
77864;SDS011;67061;48.524;9.040;2023-02-15T10:52:09;13.73;;;8.38;;
77864;SDS011;67061;48.524;9.040;2023-02-15T10:54:45;13.10;;;6.47;;
77864;SDS011;67061;48.524;9.040;2023-02-15T10:57:21;12.80;;;6.53;;
77864;SDS011;67061;48.524;9.040;2023-02-15T11:00:00;12.13;;;7.20;;
77864;SDS011;67061;48.524;9.040;2023-02-15T11:02:39;14.40;;;6.93;;
77864;SDS011;67061;48.524;9.040;2023-02-15T11:05:31;12.75;;;7.13;;
77864;SDS011;67061;48.524;9.040;2023-02-15T11:08:08;47.67;;;22.38;;
77864;SDS011;67061;48.524;9.040;2023-02-15T11:10:38;13.30;;;7.38;;
77864;SDS011;67061;48.524;9.040;2023-02-15T11:13:08;11.88;;;7.22;;
77864;SDS011;67061;48.524;9.040;2023-02-15T11:15:41;13.73;;;7.78;;
77864;SDS011;67061;48.524;9.040;2023-02-15T11:18:13;13.50;;;8.27;;
77864;SDS011;67061;48.524;9.040;2023-02-15T11:20:46;14.90;;;7.60;;
77864;SDS011;67061;48.524;9.040;2023-02-15T11:23:20;15.20;;;7.38;;
77864;SDS011;67061;48.524;9.040;2023-02-15T11:28:22;11.38;;;6.93;;
77864;SDS011;67061;48.524;9.040;2023-02-15T11:30:55;12.52;;;8.15;;
77864;SDS011;67061;48.524;9.040;2023-02-15T11:33:25;14.15;;;7.97;;
77864;SDS011;67061;48.524;9.040;2023-02-15T11:35:57;13.55;;;7.05;;
77864;SDS011;67061;48.524;9.040;2023-02-15T11:38:28;12.82;;;7.47;;
77864;SDS011;67061;48.524;9.040;2023-02-15T11:40:59;12.25;;;7.50;;
77864;SDS011;67061;48.524;9.040;2023-02-15T11:43:31;11.15;;;6.57;;
77864;SDS011;67061;48.524;9.040;2023-02-15T11:46:03;15.05;;;7.90;;
77864;SDS011;67061;48.524;9.040;2023-02-15T11:48:49;13.82;;;7.82;;
77864;SDS011;67061;48.524;9.040;2023-02-15T11:51:38;10.80;;;6.78;;
77864;SDS011;67061;48.524;9.040;2023-02-15T11:54:30;11.88;;;7.03;;
77864;SDS011;67061;48.524;9.040;2023-02-15T11:57:23;15.15;;;7.82;;
77864;SDS011;67061;48.524;9.040;2023-02-15T12:00:16;11.15;;;7.05;;
77864;SDS011;67061;48.524;9.040;2023-02-15T12:03:14;11.20;;;7.05;;
77864;SDS011;67061;48.524;9.040;2023-02-15T12:06:11;10.63;;;6.78;;
77864;SDS011;67061;48.524;9.040;2023-02-15T12:09:05;12.75;;;6.53;;
77864;SDS011;67061;48.524;9.040;2023-02-15T12:15:08;11.70;;;7.30;;
77864;SDS011;67061;48.524;9.040;2023-02-15T12:17:56;11.82;;;7.53;;
77864;SDS011;67061;48.524;9.040;2023-02-15T12:20:44;10.85;;;7.75;;
77864;SDS011;67061;48.524;9.040;2023-02-15T12:23:32;10.85;;;6.80;;
77864;SDS011;67061;48.524;9.040;2023-02-15T12:26:24;9.35;;;7.05;;
77864;SDS011;67061;48.524;9.040;2023-02-15T12:29:15;9.43;;;6.10;;
77864;SDS011;67061;48.524;9.040;2023-02-15T12:32:03;9.77;;;6.88;;
77864;SDS011;67061;48.524;9.040;2023-02-15T12:34:52;10.88;;;6.25;;
77864;SDS011;67061;48.524;9.040;2023-02-15T12:37:52;10.82;;;7.65;;
77864;SDS011;67061;48.524;9.040;2023-02-15T12:40:42;10.48;;;6.43;;
77864;SDS011;67061;48.524;9.040;2023-02-15T12:43:45;9.13;;;5.93;;
77864;SDS011;67061;48.524;9.040;2023-02-15T12:46:32;10.52;;;6.15;;
77864;SDS011;67061;48.524;9.040;2023-02-15T12:49:19;7.75;;;5.30;;
77864;SDS011;67061;48.524;9.040;2023-02-15T12:52:22;9.20;;;5.70;;
77864;SDS011;67061;48.524;9.040;2023-02-15T12:55:18;9.73;;;5.88;;
77864;SDS011;67061;48.524;9.040;2023-02-15T12:58:12;11.50;;;6.57;;
77864;SDS011;67061;48.524;9.040;2023-02-15T13:01:04;7.97;;;6.00;;
77864;SDS011;67061;48.524;9.040;2023-02-15T13:03:58;10.73;;;5.45;;
77864;SDS011;67061;48.524;9.040;2023-02-15T13:06:47;11.20;;;6.57;;
77864;SDS011;67061;48.524;9.040;2023-02-15T13:09:37;7.13;;;4.78;;
77864;SDS011;67061;48.524;9.040;2023-02-15T13:12:27;7.32;;;4.70;;
77864;SDS011;67061;48.524;9.040;2023-02-15T13:15:22;11.20;;;4.68;;
77864;SDS011;67061;48.524;9.040;2023-02-15T13:18:14;8.15;;;6.70;;
77864;SDS011;67061;48.524;9.040;2023-02-15T13:21:06;12.35;;;6.47;;
77864;SDS011;67061;48.524;9.040;2023-02-15T13:23:57;10.15;;;4.72;;
77864;SDS011;67061;48.524;9.040;2023-02-15T13:26:51;8.50;;;7.10;;
77864;SDS011;67061;48.524;9.040;2023-02-15T13:29:42;11.10;;;7.07;;
77864;SDS011;67061;48.524;9.040;2023-02-15T13:32:32;9.32;;;5.82;;
77864;SDS011;67061;48.524;9.040;2023-02-15T13:35:23;10.48;;;6.03;;
77864;SDS011;67061;48.524;9.040;2023-02-15T13:38:16;10.60;;;5.75;;
77864;SDS011;67061;48.524;9.040;2023-02-15T13:41:16;9.50;;;5.65;;
77864;SDS011;67061;48.524;9.040;2023-02-15T13:44:10;8.25;;;5.38;;
77864;SDS011;67061;48.524;9.040;2023-02-15T13:47:09;13.95;;;5.80;;
77864;SDS011;67061;48.524;9.040;2023-02-15T13:50:07;8.57;;;4.93;;
77864;SDS011;67061;48.524;9.040;2023-02-15T13:53:12;7.82;;;4.57;;
77864;SDS011;67061;48.524;9.040;2023-02-15T13:56:14;6.55;;;4.40;;
77864;SDS011;67061;48.524;9.040;2023-02-15T13:59:12;12.23;;;6.82;;
77864;SDS011;67061;48.524;9.040;2023-02-15T14:02:29;11.07;;;7.72;;
77864;SDS011;67061;48.524;9.040;2023-02-15T14:05:47;9.60;;;6.43;;
77864;SDS011;67061;48.524;9.040;2023-02-15T14:08:50;8.77;;;7.88;;
77864;SDS011;67061;48.524;9.040;2023-02-15T14:11:49;10.30;;;7.45;;
77864;SDS011;67061;48.524;9.040;2023-02-15T14:14:47;10.88;;;7.05;;
77864;SDS011;67061;48.524;9.040;2023-02-15T14:17:51;10.40;;;7.32;;
77864;SDS011;67061;48.524;9.040;2023-02-15T14:20:49;15.00;;;8.07;;
77864;SDS011;67061;48.524;9.040;2023-02-15T14:23:46;13.23;;;7.63;;
77864;SDS011;67061;48.524;9.040;2023-02-15T14:26:42;14.43;;;8.70;;
77864;SDS011;67061;48.524;9.040;2023-02-15T14:32:44;13.75;;;8.02;;
77864;SDS011;67061;48.524;9.040;2023-02-15T14:35:36;11.55;;;8.15;;
77864;SDS011;67061;48.524;9.040;2023-02-15T14:38:26;11.60;;;6.90;;
77864;SDS011;67061;48.524;9.040;2023-02-15T14:41:26;14.20;;;9.45;;
77864;SDS011;67061;48.524;9.040;2023-02-15T14:44:20;13.02;;;7.57;;
77864;SDS011;67061;48.524;9.040;2023-02-15T14:47:15;13.85;;;7.25;;
77864;SDS011;67061;48.524;9.040;2023-02-15T14:50:32;11.25;;;7.85;;
77864;SDS011;67061;48.524;9.040;2023-02-15T14:53:35;10.15;;;6.88;;
77864;SDS011;67061;48.524;9.040;2023-02-15T14:56:25;10.27;;;6.38;;
77864;SDS011;67061;48.524;9.040;2023-02-15T15:02:09;12.88;;;7.35;;
77864;SDS011;67061;48.524;9.040;2023-02-15T15:05:01;12.05;;;7.25;;
77864;SDS011;67061;48.524;9.040;2023-02-15T15:07:55;13.38;;;7.15;;
77864;SDS011;67061;48.524;9.040;2023-02-15T15:10:45;10.95;;;7.43;;
77864;SDS011;67061;48.524;9.040;2023-02-15T15:13:44;12.85;;;7.25;;
77864;SDS011;67061;48.524;9.040;2023-02-15T15:16:47;13.10;;;7.72;;
77864;SDS011;67061;48.524;9.040;2023-02-15T15:26:24;12.25;;;6.50;;
77864;SDS011;67061;48.524;9.040;2023-02-15T15:29:13;9.68;;;6.18;;
77864;SDS011;67061;48.524;9.040;2023-02-15T15:32:26;12.23;;;6.18;;
77864;SDS011;67061;48.524;9.040;2023-02-15T15:35:18;10.93;;;6.20;;
77864;SDS011;67061;48.524;9.040;2023-02-15T15:38:15;9.57;;;5.63;;
77864;SDS011;67061;48.524;9.040;2023-02-15T15:41:16;9.20;;;5.63;;
77864;SDS011;67061;48.524;9.040;2023-02-15T15:47:34;10.68;;;6.55;;
77864;SDS011;67061;48.524;9.040;2023-02-15T15:50:32;9.80;;;5.03;;
77864;SDS011;67061;48.524;9.040;2023-02-15T15:53:20;7.50;;;4.68;;
77864;SDS011;67061;48.524;9.040;2023-02-15T15:56:12;17.50;;;12.75;;
77864;SDS011;67061;48.524;9.040;2023-02-15T15:59:02;8.25;;;5.13;;
77864;SDS011;67061;48.524;9.040;2023-02-15T16:01:54;9.05;;;5.40;;
77864;SDS011;67061;48.524;9.040;2023-02-15T16:04:41;8.15;;;4.93;;
77864;SDS011;67061;48.524;9.040;2023-02-15T16:07:30;7.95;;;5.57;;
77864;SDS011;67061;48.524;9.040;2023-02-15T16:10:21;9.85;;;6.65;;
77864;SDS011;67061;48.524;9.040;2023-02-15T16:13:11;8.23;;;4.78;;
77864;SDS011;67061;48.524;9.040;2023-02-15T16:16:01;10.18;;;5.28;;
77864;SDS011;67061;48.524;9.040;2023-02-15T16:18:49;9.15;;;4.95;;
77864;SDS011;67061;48.524;9.040;2023-02-15T16:21:37;8.18;;;4.35;;
77864;SDS011;67061;48.524;9.040;2023-02-15T16:24:25;6.93;;;4.10;;
77864;SDS011;67061;48.524;9.040;2023-02-15T16:27:33;6.43;;;4.32;;
77864;SDS011;67061;48.524;9.040;2023-02-15T16:30:28;7.00;;;3.60;;
77864;SDS011;67061;48.524;9.040;2023-02-15T16:33:16;6.80;;;3.28;;
77864;SDS011;67061;48.524;9.040;2023-02-15T16:36:09;7.80;;;4.35;;
77864;SDS011;67061;48.524;9.040;2023-02-15T16:39:08;9.98;;;4.00;;
77864;SDS011;67061;48.524;9.040;2023-02-15T16:42:03;7.63;;;3.97;;
77864;SDS011;67061;48.524;9.040;2023-02-15T16:44:55;8.38;;;3.85;;
77864;SDS011;67061;48.524;9.040;2023-02-15T16:47:48;9.43;;;4.05;;
77864;SDS011;67061;48.524;9.040;2023-02-15T16:50:39;18.48;;;6.10;;
77864;SDS011;67061;48.524;9.040;2023-02-15T16:53:34;12.30;;;7.03;;
77864;SDS011;67061;48.524;9.040;2023-02-15T16:56:23;13.52;;;6.07;;
77864;SDS011;67061;48.524;9.040;2023-02-15T16:59:16;15.23;;;5.93;;
77864;SDS011;67061;48.524;9.040;2023-02-15T17:02:14;15.98;;;5.03;;
77864;SDS011;67061;48.524;9.040;2023-02-15T17:05:10;13.43;;;5.60;;
77864;SDS011;67061;48.524;9.040;2023-02-15T17:08:12;10.18;;;4.93;;
77864;SDS011;67061;48.524;9.040;2023-02-15T17:11:05;12.80;;;5.45;;
77864;SDS011;67061;48.524;9.040;2023-02-15T17:14:12;10.90;;;5.28;;